createdAt,value
2022-08-08T00:00:52.316Z,25.80
2022-08-08T00:03:58.431Z,25.80
2022-08-08T00:06:49.771Z,25.80
2022-08-08T00:09:17.019Z,25.80
2022-08-08T00:12:07.436Z,25.80
2022-08-08T00:15:03.403Z,25.70
2022-08-08T00:18:03.344Z,25.80
2022-08-08T00:20:54.620Z,25.70
2022-08-08T00:23:42.773Z,25.70
2022-08-08T00:26:26.495Z,25.70
2022-08-08T00:29:08.131Z,25.70
2022-08-08T00:32:20.055Z,25.70
2022-08-08T00:35:05.314Z,25.80
2022-08-08T00:38:02.454Z,25.80
2022-08-08T00:41:09.667Z,25.80
2022-08-08T00:43:56.024Z,25.80
2022-08-08T00:46:57.253Z,25.80
2022-08-08T00:49:58.370Z,25.80
2022-08-08T00:53:03.528Z,25.80
2022-08-08T00:55:53.307Z,25.80
2022-08-08T00:59:02.632Z,25.70
2022-08-08T01:01:45.902Z,25.70
2022-08-08T01:04:36.645Z,25.70
2022-08-08T01:07:54.130Z,25.70
2022-08-08T01:10:39.257Z,25.80
2022-08-08T01:13:52.940Z,25.80
2022-08-08T01:16:30.778Z,25.80
2022-08-08T01:19:25.280Z,25.80
2022-08-08T01:22:12.641Z,25.80
2022-08-08T01:24:59.218Z,25.70
2022-08-08T01:27:44.318Z,25.70
2022-08-08T01:30:34.082Z,25.70
2022-08-08T01:33:43.017Z,25.70
2022-08-08T01:36:59.679Z,25.70
2022-08-08T01:39:50.130Z,25.70
2022-08-08T01:42:20.379Z,25.70
2022-08-08T01:45:40.186Z,25.80
2022-08-08T01:48:48.233Z,25.80
2022-08-08T01:52:04.855Z,25.80
2022-08-08T01:55:26.589Z,25.80
2022-08-08T01:58:10.979Z,25.80
2022-08-08T02:00:27.815Z,25.70
2022-08-08T02:03:55.960Z,25.70
2022-08-08T02:05:59.406Z,25.70
2022-08-08T02:08:57.892Z,25.80
2022-08-08T02:11:58.940Z,25.70
2022-08-08T02:14:21.208Z,25.70
2022-08-08T02:16:57.841Z,25.70
2022-08-08T02:19:57.010Z,25.80
2022-08-08T02:22:31.886Z,25.70
2022-08-08T02:25:19.798Z,25.80
2022-08-08T02:27:51.712Z,25.70
2022-08-08T02:30:24.800Z,25.80
2022-08-08T02:33:14.817Z,25.70
2022-08-08T02:36:12.624Z,25.70
2022-08-08T02:39:42.130Z,25.70
2022-08-08T02:42:07.986Z,25.70
2022-08-08T02:44:58.051Z,25.70
2022-08-08T02:47:47.028Z,25.70
2022-08-08T02:50:56.975Z,25.70
2022-08-08T02:53:50.906Z,25.70
2022-08-08T02:57:05.359Z,25.80
2022-08-08T03:00:32.139Z,25.70
2022-08-08T03:03:07.917Z,25.80
2022-08-08T03:06:07.399Z,25.70
2022-08-08T03:09:19.608Z,25.70
2022-08-08T03:12:16.093Z,25.70
2022-08-08T03:16:01.428Z,25.70
2022-08-08T03:18:04.745Z,25.70
2022-08-08T03:20:46.961Z,25.70
2022-08-08T03:23:18.620Z,25.70
2022-08-08T03:25:46.479Z,25.70
2022-08-08T03:28:31.892Z,25.70
2022-08-08T03:31:22.057Z,25.70
2022-08-08T03:33:55.430Z,25.80
2022-08-08T03:36:30.633Z,25.80
2022-08-08T03:39:14.341Z,25.70
2022-08-08T03:42:12.335Z,25.80
2022-08-08T03:44:34.160Z,25.70
2022-08-08T03:47:13.975Z,25.70
2022-08-08T03:50:00.536Z,25.70
2022-08-08T03:52:30.968Z,25.60
2022-08-08T03:55:09.809Z,25.70
2022-08-08T03:58:31.949Z,25.60
2022-08-08T04:00:26.758Z,25.70
2022-08-08T04:02:55.370Z,25.60
2022-08-08T04:05:28.283Z,25.70
2022-08-08T04:07:56.085Z,25.70
2022-08-08T04:10:25.414Z,25.70
2022-08-08T04:12:59.825Z,25.70
2022-08-08T04:15:30.615Z,25.70
2022-08-08T04:18:06.097Z,25.70
2022-08-08T04:20:36.282Z,25.70
2022-08-08T04:23:07.142Z,25.70
2022-08-08T04:25:38.596Z,25.70
2022-08-08T04:28:35.206Z,25.60
2022-08-08T04:30:55.314Z,25.70
2022-08-08T04:33:24.609Z,25.60
2022-08-08T04:35:53.842Z,25.60
2022-08-08T04:38:22.939Z,25.60
2022-08-08T04:40:51.749Z,25.00
2022-08-08T04:43:22.356Z,23.30
2022-08-08T04:45:59.311Z,22.40
2022-08-08T04:48:26.689Z,21.80
2022-08-08T04:50:53.498Z,21.40
2022-08-08T04:54:36.106Z,21.30
2022-08-08T04:56:08.037Z,21.40
2022-08-08T04:58:35.207Z,21.40
2022-08-08T05:01:08.768Z,21.70
2022-08-08T05:04:09.709Z,22.30
2022-08-08T05:06:27.852Z,22.80
2022-08-08T05:08:56.419Z,23.10
2022-08-08T05:24:16.992Z,22.90
2022-08-08T05:26:49.142Z,22.90
2022-08-08T05:29:15.954Z,22.80
2022-08-08T05:32:04.286Z,22.80
2022-08-08T05:34:36.481Z,22.80
2022-08-08T05:37:07.619Z,22.80
2022-08-08T05:39:44.214Z,22.70
2022-08-08T05:42:11.436Z,22.80
2022-08-08T05:44:47.119Z,22.70
2022-08-08T05:47:21.185Z,22.40
2022-08-08T05:49:56.074Z,22.30
2022-08-08T05:52:33.901Z,22.40
2022-08-08T05:55:14.294Z,22.40
2022-08-08T05:58:03.970Z,22.10
2022-08-08T06:00:34.108Z,22.00
2022-08-08T06:03:17.514Z,22.20
2022-08-08T06:06:07.223Z,22.30
2022-08-08T06:08:53.084Z,22.60
2022-08-08T06:11:22.352Z,22.90
2022-08-08T06:13:55.139Z,22.90
2022-08-08T06:16:27.483Z,22.90
2022-08-08T06:18:57.563Z,22.80
2022-08-08T06:21:32.421Z,22.20
2022-08-08T06:24:03.594Z,21.80
2022-08-08T06:26:45.316Z,21.70
2022-08-08T06:29:49.050Z,21.70
2022-08-08T06:32:17.149Z,21.70
2022-08-08T06:35:11.682Z,21.50
2022-08-08T06:37:37.796Z,21.50
2022-08-08T06:40:07.241Z,21.50
2022-08-08T06:42:39.944Z,21.50
2022-08-08T06:45:08.639Z,21.50
2022-08-08T06:47:58.271Z,21.40
2022-08-08T06:50:32.160Z,21.40
2022-08-08T06:53:14.077Z,21.40
2022-08-08T06:55:46.959Z,21.30
2022-08-08T06:58:14.538Z,21.40
2022-08-08T07:00:47.951Z,21.50
2022-08-08T07:04:35.577Z,21.40
2022-08-08T07:06:22.790Z,21.40
2022-08-08T07:08:58.712Z,21.60
2022-08-08T07:11:30.333Z,21.60
2022-08-08T07:14:23.868Z,21.70
2022-08-08T07:17:09.431Z,21.70
2022-08-08T07:19:52.339Z,22.00
2022-08-08T07:22:47.465Z,22.00
2022-08-08T07:25:19.410Z,22.10
2022-08-08T07:28:02.642Z,22.00
2022-08-08T07:30:34.774Z,21.90
2022-08-08T07:33:01.868Z,21.80
2022-08-08T07:35:29.291Z,21.80
2022-08-08T07:38:10.281Z,22.00
2022-08-08T07:40:45.964Z,21.90
2022-08-08T07:43:14.464Z,22.00
2022-08-08T07:46:05.365Z,22.20
2022-08-08T07:48:29.653Z,22.50
2022-08-08T07:50:58.944Z,22.70
2022-08-08T07:54:02.112Z,22.80
2022-08-08T07:56:17.815Z,22.90
2022-08-08T07:59:03.318Z,23.00
2022-08-08T08:02:35.146Z,23.10
2022-08-08T08:04:16.904Z,23.10
2022-08-08T08:06:43.953Z,23.10
2022-08-08T08:09:13.628Z,23.10
2022-08-08T08:11:52.590Z,22.90
2022-08-08T08:14:42.990Z,22.70
2022-08-08T08:17:09.926Z,22.60
2022-08-08T08:19:45.399Z,22.70
2022-08-08T08:22:12.898Z,22.90
2022-08-08T08:24:46.210Z,23.10
2022-08-08T08:27:13.788Z,23.20
2022-08-08T08:29:42.406Z,23.20
2022-08-08T08:32:09.363Z,23.40
2022-08-08T08:34:43.109Z,23.40
2022-08-08T08:37:20.298Z,23.50
2022-08-08T08:40:01.402Z,23.50
2022-08-08T08:42:35.644Z,23.50
2022-08-08T08:45:20.857Z,23.60
2022-08-08T08:47:53.358Z,23.60
2022-08-08T08:50:33.663Z,23.60
2022-08-08T08:53:04.448Z,23.60
2022-08-08T08:55:39.273Z,23.70
2022-08-08T08:58:07.879Z,23.70
2022-08-08T09:01:05.286Z,23.70
2022-08-08T09:03:24.184Z,23.70
2022-08-08T09:06:26.139Z,23.60
2022-08-08T09:09:07.360Z,23.70
2022-08-08T09:11:47.356Z,23.70
2022-08-08T09:14:28.842Z,23.80
2022-08-08T09:16:55.639Z,23.90
2022-08-08T09:21:59.503Z,23.90
2022-08-08T09:22:09.311Z,24.00
2022-08-08T09:24:36.657Z,24.00
2022-08-08T09:27:09.181Z,24.00
2022-08-08T09:29:52.914Z,23.90
2022-08-08T09:32:39.458Z,24.00
2022-08-08T09:35:24.752Z,24.10
2022-08-08T09:38:03.787Z,24.10
2022-08-08T09:40:43.830Z,24.20
2022-08-08T09:43:16.567Z,24.20
2022-08-08T09:46:03.241Z,24.30
2022-08-08T09:48:35.654Z,24.30
2022-08-08T09:51:05.004Z,24.30
2022-08-08T09:54:09.375Z,24.40
2022-08-08T09:56:48.181Z,24.40
2022-08-08T09:59:50.670Z,24.40
2022-08-08T10:02:12.837Z,24.50
2022-08-08T10:04:48.049Z,24.40
2022-08-08T10:07:25.817Z,24.30
2022-08-08T10:10:00.091Z,24.30
2022-08-08T10:12:53.662Z,24.30
2022-08-08T10:15:25.308Z,24.30
2022-08-08T10:18:07.409Z,24.30
2022-08-08T10:20:51.497Z,24.30
2022-08-08T10:23:56.066Z,24.30
2022-08-08T10:26:52.328Z,24.40
2022-08-08T10:29:23.206Z,24.40
2022-08-08T10:32:08.741Z,24.40
2022-08-08T10:34:36.332Z,24.40
2022-08-08T10:37:05.496Z,24.40
2022-08-08T10:39:43.266Z,24.50
2022-08-08T10:42:14.678Z,24.50
2022-08-08T10:44:43.063Z,24.50
2022-08-08T10:47:14.368Z,24.50
2022-08-08T10:50:04.480Z,24.60
2022-08-08T10:52:32.696Z,24.60
2022-08-08T10:55:40.213Z,24.60
2022-08-08T10:58:09.453Z,24.60
2022-08-08T11:00:53.407Z,24.60
2022-08-08T11:03:36.759Z,24.70
2022-08-08T11:06:15.889Z,24.70
2022-08-08T11:08:53.244Z,24.70
2022-08-08T11:11:59.633Z,24.70
2022-08-08T11:14:08.165Z,24.80
2022-08-08T11:16:46.680Z,24.70
2022-08-08T11:19:15.603Z,24.80
2022-08-08T11:21:55.432Z,24.80
2022-08-08T11:24:23.618Z,24.80
2022-08-08T11:26:56.903Z,24.90
2022-08-08T11:29:41.469Z,24.90
2022-08-08T11:32:14.427Z,25.00
2022-08-08T11:35:07.934Z,25.00
2022-08-08T11:38:35.502Z,25.00
2022-08-08T11:40:22.515Z,25.00
2022-08-08T11:42:53.515Z,25.10
2022-08-08T11:45:21.681Z,25.10
2022-08-08T11:48:04.787Z,25.00
2022-08-08T11:50:32.369Z,25.00
2022-08-08T11:53:00.977Z,25.00
2022-08-08T11:55:36.483Z,24.90
2022-08-08T11:58:15.140Z,24.90
2022-08-08T12:00:47.133Z,25.00
2022-08-08T12:03:24.663Z,24.90
2022-08-08T12:05:57.632Z,24.90
2022-08-08T12:08:37.942Z,24.80
2022-08-08T12:11:09.773Z,24.80
2022-08-08T12:14:02.322Z,24.80
2022-08-08T12:16:30.235Z,24.80
2022-08-08T12:18:58.894Z,24.80
2022-08-08T12:22:00.726Z,24.90
2022-08-08T12:24:19.679Z,24.90
2022-08-08T12:26:50.029Z,24.90
2022-08-08T12:29:21.609Z,25.00
2022-08-08T12:32:00.581Z,25.00
2022-08-08T12:34:36.223Z,24.90
2022-08-08T12:37:08.564Z,25.00
2022-08-08T12:40:00.702Z,25.00
2022-08-08T12:42:22.644Z,24.90
2022-08-08T12:45:59.274Z,25.00
2022-08-08T12:48:36.408Z,24.90
2022-08-08T12:51:05.653Z,24.90
2022-08-08T12:53:41.632Z,25.00
2022-08-08T12:56:19.636Z,25.00
2022-08-08T12:58:51.709Z,25.00
2022-08-08T13:01:24.234Z,25.00
2022-08-08T13:04:01.412Z,25.00
2022-08-08T13:06:28.175Z,25.10
2022-08-08T13:08:56.304Z,25.20
2022-08-08T13:11:28.657Z,25.20
2022-08-08T13:14:12.974Z,25.30
2022-08-08T13:16:40.854Z,25.30
2022-08-08T13:19:14.223Z,25.30
2022-08-08T13:21:53.466Z,25.40
2022-08-08T13:24:42.423Z,25.40
2022-08-08T13:27:16.716Z,25.40
2022-08-08T13:29:52.864Z,25.40
2022-08-08T13:32:20.948Z,25.40
2022-08-08T13:34:52.746Z,25.50
2022-08-08T13:37:52.082Z,25.50
2022-08-08T13:40:08.167Z,25.60
2022-08-08T13:42:35.490Z,25.50
2022-08-08T13:45:03.717Z,25.50
2022-08-08T13:47:31.592Z,25.50
2022-08-08T13:50:35.131Z,25.50
2022-08-08T13:52:48.598Z,25.50
2022-08-08T13:55:29.438Z,25.60
2022-08-08T13:58:07.936Z,25.60
2022-08-08T14:00:45.383Z,25.50
2022-08-08T14:03:53.473Z,25.50
2022-08-08T14:06:32.026Z,25.50
2022-08-08T14:08:57.147Z,25.50
2022-08-08T14:11:25.801Z,25.50
2022-08-08T14:13:59.912Z,25.50
2022-08-08T14:16:28.617Z,25.50
2022-08-08T14:19:00.592Z,25.60
2022-08-08T14:21:52.232Z,25.60
2022-08-08T14:24:33.731Z,25.70
2022-08-08T14:27:01.951Z,25.70
2022-08-08T14:29:39.451Z,25.70
2022-08-08T14:32:11.768Z,25.80
2022-08-08T14:34:42.102Z,25.80
2022-08-08T14:37:09.817Z,25.80
2022-08-08T14:40:05.704Z,25.80
2022-08-08T14:42:54.482Z,25.80
2022-08-08T14:45:26.769Z,25.80
2022-08-08T14:48:04.079Z,25.80
2022-08-08T14:50:38.718Z,25.90
2022-08-08T14:53:15.307Z,25.90
2022-08-08T14:55:43.697Z,25.90
2022-08-08T14:58:19.753Z,25.90
2022-08-08T15:00:47.902Z,25.90
2022-08-08T15:03:17.355Z,25.90
2022-08-08T15:05:54.073Z,25.90
2022-08-08T15:08:33.448Z,25.90
2022-08-08T15:11:04.336Z,26.00
2022-08-08T15:13:40.056Z,25.90
2022-08-08T15:16:18.650Z,25.90
2022-08-08T15:18:49.976Z,25.90
2022-08-08T15:21:19.158Z,26.00
2022-08-08T15:23:51.552Z,26.00
2022-08-08T15:26:20.649Z,25.90
2022-08-08T15:28:53.335Z,26.00
2022-08-08T15:31:55.880Z,26.00
2022-08-08T15:34:29.374Z,25.90
2022-08-08T15:37:01.836Z,25.80
2022-08-08T15:39:31.678Z,25.80
2022-08-08T15:42:06.942Z,25.70
2022-08-08T15:44:40.604Z,25.60
2022-08-08T15:47:15.696Z,25.70
2022-08-08T15:49:47.488Z,25.80
2022-08-08T15:52:15.056Z,25.90
2022-08-08T15:54:42.418Z,25.90
2022-08-08T15:57:13.743Z,25.90
2022-08-08T16:00:18.131Z,26.00
2022-08-08T16:02:31.567Z,26.00
2022-08-08T16:05:00.146Z,26.00
2022-08-08T16:07:39.160Z,26.10
2022-08-08T16:13:11.642Z,26.00
2022-08-08T16:13:27.122Z,26.10
2022-08-08T16:15:58.877Z,26.10
2022-08-08T16:18:27.790Z,26.10
2022-08-08T16:21:00.055Z,26.10
2022-08-08T16:23:31.751Z,26.10
2022-08-08T16:26:04.169Z,26.10
2022-08-08T16:28:35.988Z,26.10
2022-08-08T16:31:08.105Z,26.20
2022-08-08T16:33:39.115Z,26.30
2022-08-08T16:36:09.667Z,26.30
2022-08-08T16:38:44.581Z,26.20
2022-08-08T16:41:20.148Z,26.20
2022-08-08T16:43:51.286Z,26.30
2022-08-08T16:46:36.594Z,26.20
2022-08-08T16:49:07.767Z,26.30
2022-08-08T16:55:01.103Z,26.20
2022-08-08T16:55:06.262Z,26.30
2022-08-08T16:57:43.570Z,26.20
2022-08-08T16:59:58.887Z,26.10
2022-08-08T17:02:37.788Z,26.20
2022-08-08T17:05:06.703Z,26.30
2022-08-08T17:07:33.545Z,26.30
2022-08-08T17:10:05.176Z,26.30
2022-08-08T17:12:34.734Z,26.30
2022-08-08T17:15:17.949Z,26.30
2022-08-08T17:18:02.380Z,26.30
2022-08-08T17:20:40.031Z,26.30
2022-08-08T17:23:18.410Z,26.40
2022-08-08T17:25:54.731Z,26.40
2022-08-08T17:28:28.844Z,26.40
2022-08-08T17:31:45.377Z,26.40
2022-08-08T17:34:48.705Z,26.40
2022-08-08T17:36:36.942Z,26.30
2022-08-08T17:39:05.043Z,26.30
2022-08-08T17:41:58.577Z,26.30
2022-08-08T17:44:29.460Z,26.30
2022-08-08T17:46:58.110Z,26.30
2022-08-08T17:49:28.694Z,26.20
2022-08-08T17:52:09.537Z,26.20
2022-08-08T17:54:36.343Z,26.20
2022-08-08T17:57:03.204Z,26.20
2022-08-08T17:59:36.067Z,26.20
2022-08-08T18:02:18.917Z,26.30
2022-08-08T18:04:54.930Z,26.30
2022-08-08T18:08:01.248Z,26.20
2022-08-08T18:10:08.777Z,26.20
2022-08-08T18:12:35.617Z,26.20
2022-08-08T18:15:03.671Z,26.20
2022-08-08T18:18:09.080Z,26.20
2022-08-08T18:20:36.537Z,26.10
2022-08-08T18:23:14.650Z,26.10
2022-08-08T18:25:42.537Z,26.10
2022-08-08T18:28:13.306Z,26.10
2022-08-08T18:30:43.906Z,26.10
2022-08-08T18:33:36.433Z,26.20
2022-08-08T18:36:03.124Z,26.20
2022-08-08T18:38:31.112Z,26.30
2022-08-08T18:40:59.394Z,26.30
2022-08-08T18:43:42.755Z,26.40
2022-08-08T18:46:56.075Z,26.30
2022-08-08T18:48:57.894Z,26.40
2022-08-08T18:51:52.469Z,26.40
2022-08-08T18:54:24.605Z,26.30
2022-08-08T18:56:57.336Z,26.30
2022-08-08T18:59:24.379Z,26.30
2022-08-08T19:02:25.085Z,26.30
2022-08-08T19:04:43.405Z,26.30
2022-08-08T19:07:10.884Z,26.30
2022-08-08T19:09:49.442Z,26.30
2022-08-08T19:12:26.395Z,26.20
2022-08-08T19:14:54.352Z,26.10
2022-08-08T19:17:28.823Z,26.10
2022-08-08T19:20:09.026Z,25.90
2022-08-08T19:22:36.278Z,25.90
2022-08-08T19:26:01.385Z,25.60
2022-08-08T19:27:57.354Z,25.70
2022-08-08T19:30:27.155Z,25.70
2022-08-08T19:32:58.014Z,25.50
2022-08-08T19:35:44.368Z,25.60
2022-08-08T19:38:17.378Z,25.70
2022-08-08T19:40:49.849Z,25.70
2022-08-08T19:43:28.197Z,25.70
2022-08-08T19:45:58.919Z,25.60
2022-08-08T19:48:29.175Z,25.60
2022-08-08T19:50:58.996Z,25.50
2022-08-08T19:53:52.757Z,25.50
2022-08-08T19:56:13.740Z,25.40
2022-08-08T19:58:43.094Z,25.20
2022-08-08T20:01:22.632Z,25.20
2022-08-08T20:04:01.314Z,25.20
2022-08-08T20:06:29.944Z,25.30
2022-08-08T20:08:57.075Z,25.40
2022-08-08T20:11:24.486Z,25.50
2022-08-08T20:14:13.078Z,25.50
2022-08-08T20:16:40.697Z,25.50
2022-08-08T20:19:08.770Z,25.50
2022-08-08T20:21:37.116Z,25.60
2022-08-08T20:24:05.807Z,25.60
2022-08-08T20:26:33.551Z,25.70
2022-08-08T20:29:01.761Z,25.80
2022-08-08T20:31:47.301Z,25.80
2022-08-08T20:34:29.405Z,25.80
2022-08-08T20:36:59.501Z,25.80
2022-08-08T20:39:33.586Z,25.80
2022-08-08T20:42:00.811Z,25.70
2022-08-08T20:44:27.718Z,25.70
2022-08-08T20:46:54.469Z,25.60
2022-08-08T20:49:22.151Z,25.70
2022-08-08T20:51:59.728Z,25.70
2022-08-08T20:54:29.230Z,25.70
2022-08-08T20:57:16.595Z,25.70
2022-08-08T20:59:42.776Z,25.70
2022-08-08T21:02:12.791Z,25.70
2022-08-08T21:04:43.570Z,25.60
2022-08-08T21:07:16.054Z,25.60
2022-08-08T21:10:01.780Z,25.60
2022-08-08T21:12:34.413Z,25.60
2022-08-08T21:15:09.511Z,25.60
2022-08-08T21:17:36.865Z,25.60
2022-08-08T21:20:04.276Z,25.60
2022-08-08T21:22:31.583Z,25.60
2022-08-08T21:24:58.484Z,25.60
2022-08-08T21:28:06.055Z,25.70
2022-08-08T21:30:16.355Z,25.70
2022-08-08T21:32:51.854Z,25.70
2022-08-08T21:36:19.065Z,25.70
2022-08-08T21:38:16.673Z,25.70
2022-08-08T21:40:55.964Z,25.60
2022-08-08T21:43:33.651Z,25.60
2022-08-08T21:48:05.752Z,25.60
2022-08-08T21:48:53.649Z,25.60
2022-08-08T21:54:17.532Z,25.60
2022-08-08T21:54:27.208Z,25.60
2022-08-08T21:57:00.558Z,25.60
2022-08-08T22:00:03.359Z,25.60
2022-08-08T22:02:16.006Z,25.60
2022-08-08T22:04:46.019Z,25.70
2022-08-08T22:07:13.173Z,25.70
2022-08-08T22:09:43.564Z,25.70
2022-08-08T22:12:16.912Z,25.60
2022-08-08T22:14:47.243Z,25.60
2022-08-08T22:17:18.275Z,25.60
2022-08-08T22:20:11.108Z,25.60
2022-08-08T22:22:38.096Z,25.60
2022-08-08T22:25:12.497Z,25.60
2022-08-08T22:28:02.967Z,25.60
2022-08-08T22:30:31.662Z,25.60
2022-08-08T22:32:58.439Z,25.60
2022-08-08T22:35:27.490Z,25.60
2022-08-08T22:38:14.365Z,25.60
2022-08-08T22:40:44.635Z,25.70
2022-08-08T22:43:11.621Z,25.70
2022-08-08T22:45:38.826Z,25.60
2022-08-08T22:48:06.271Z,25.60
2022-08-08T22:50:33.635Z,25.60
2022-08-08T22:54:28.068Z,25.60
2022-08-08T22:55:58.328Z,25.60
2022-08-08T22:58:31.959Z,25.60
2022-08-08T23:01:00.620Z,25.60
2022-08-08T23:03:34.065Z,25.60
2022-08-08T23:06:16.030Z,25.50
2022-08-08T23:08:44.151Z,25.60
2022-08-08T23:11:21.942Z,25.60
2022-08-08T23:13:53.706Z,25.60
2022-08-08T23:16:37.612Z,25.60
2022-08-08T23:19:09.449Z,25.70
2022-08-08T23:21:37.827Z,25.60
2022-08-08T23:24:06.958Z,25.60
2022-08-08T23:26:34.322Z,25.60
2022-08-08T23:29:01.676Z,25.60
2022-08-08T23:31:28.546Z,25.60
2022-08-08T23:34:17.326Z,25.60
2022-08-08T23:36:42.366Z,25.60
2022-08-08T23:39:09.415Z,25.60
2022-08-08T23:41:46.115Z,25.60
2022-08-08T23:44:19.520Z,25.60
2022-08-08T23:49:05.625Z,25.60
2022-08-08T23:49:38.111Z,25.70
2022-08-08T23:52:08.756Z,25.60
2022-08-08T23:54:43.601Z,25.60
2022-08-08T23:57:26.288Z,25.60
